createdAt,value
2022-09-21T00:01:17.510Z,14.90
2022-09-21T00:03:44.853Z,14.91
2022-09-21T00:06:18.025Z,14.93
2022-09-21T00:08:45.889Z,14.93
2022-09-21T00:11:20.381Z,14.87
2022-09-21T00:13:47.653Z,14.95
2022-09-21T00:16:16.842Z,14.95
2022-09-21T00:18:43.800Z,14.96
2022-09-21T00:21:13.868Z,14.87
2022-09-21T00:23:41.004Z,14.85
2022-09-21T00:26:16.724Z,14.79
2022-09-21T00:28:44.505Z,14.74
2022-09-21T00:31:14.307Z,14.79
2022-09-21T00:33:42.542Z,14.76
2022-09-21T00:36:14.668Z,14.67
2022-09-21T00:38:41.259Z,14.65
2022-09-21T00:41:10.304Z,14.63
2022-09-21T00:43:40.291Z,14.62
2022-09-21T00:46:31.454Z,14.73
2022-09-21T00:48:58.560Z,14.67
2022-09-21T00:51:25.990Z,14.58
2022-09-21T00:53:59.295Z,14.49
2022-09-21T00:56:26.711Z,14.49
2022-09-21T00:58:55.053Z,14.51
2022-09-21T01:01:22.335Z,14.48
2022-09-21T01:03:51.466Z,14.45
2022-09-21T01:06:20.467Z,14.37
2022-09-21T01:08:52.746Z,14.38
2022-09-21T01:11:34.445Z,14.26
2022-09-21T01:14:15.248Z,14.10
2022-09-21T01:17:19.749Z,14.23
2022-09-21T01:20:08.304Z,14.24
2022-09-21T01:22:52.188Z,14.24
2022-09-21T01:25:38.866Z,14.18
2022-09-21T01:28:30.230Z,14.15
2022-09-21T01:31:05.960Z,14.10
2022-09-21T01:33:44.197Z,14.10
2022-09-21T01:36:15.185Z,14.06
2022-09-21T01:38:55.076Z,14.05
2022-09-21T01:41:26.044Z,14.14
2022-09-21T01:44:08.375Z,14.14
2022-09-21T01:46:37.185Z,14.15
2022-09-21T01:49:13.094Z,14.04
2022-09-21T01:51:46.801Z,14.08
2022-09-21T01:54:21.667Z,14.02
2022-09-21T01:56:55.522Z,14.02
2022-09-21T01:59:28.062Z,13.94
2022-09-21T02:02:04.883Z,13.85
2022-09-21T02:04:35.053Z,13.85
2022-09-21T02:07:02.643Z,13.94
2022-09-21T02:09:29.807Z,13.85
2022-09-21T02:11:58.152Z,13.83
2022-09-21T02:14:25.532Z,13.86
2022-09-21T02:17:08.685Z,13.83
2022-09-21T02:19:41.657Z,13.83
2022-09-21T02:22:33.263Z,13.78
2022-09-21T02:25:13.944Z,13.87
2022-09-21T02:27:55.836Z,13.80
2022-09-21T02:30:25.288Z,13.81
2022-09-21T02:33:01.190Z,13.78
2022-09-21T02:35:39.722Z,13.79
2022-09-21T02:38:22.712Z,13.79
2022-09-21T02:40:56.719Z,13.67
2022-09-21T02:43:30.319Z,13.64
2022-09-21T02:46:04.226Z,13.64
2022-09-21T02:48:44.902Z,13.68
2022-09-21T02:51:16.873Z,13.70
2022-09-21T02:53:45.584Z,13.68
2022-09-21T02:56:13.828Z,13.65
2022-09-21T02:58:48.322Z,13.62
2022-09-21T03:01:16.667Z,13.57
2022-09-21T03:03:43.491Z,13.54
2022-09-21T03:06:10.521Z,13.62
2022-09-21T03:08:36.995Z,13.55
2022-09-21T03:11:03.677Z,13.54
2022-09-21T03:13:30.433Z,13.60
2022-09-21T03:16:05.339Z,13.63
2022-09-21T03:18:32.590Z,13.53
2022-09-21T03:20:59.441Z,13.46
2022-09-21T03:23:26.883Z,13.48
2022-09-21T03:25:54.637Z,13.46
2022-09-21T03:28:22.152Z,13.43
2022-09-21T03:30:50.302Z,13.46
2022-09-21T03:33:19.070Z,13.37
2022-09-21T03:35:47.828Z,13.31
2022-09-21T03:38:16.746Z,13.32
2022-09-21T03:40:47.587Z,13.35
2022-09-21T03:43:14.969Z,13.33
2022-09-21T03:45:42.663Z,13.32
2022-09-21T03:48:11.494Z,13.32
2022-09-21T03:50:38.661Z,13.37
2022-09-21T03:53:05.710Z,13.45
2022-09-21T03:55:33.179Z,13.45
2022-09-21T03:57:59.910Z,13.31
2022-09-21T04:00:27.248Z,13.23
2022-09-21T04:02:54.095Z,13.28
2022-09-21T04:05:20.946Z,13.21
2022-09-21T04:07:48.306Z,13.26
2022-09-21T04:10:18.299Z,13.22
2022-09-21T04:12:46.644Z,13.23
2022-09-21T04:15:15.342Z,13.07
2022-09-21T04:17:42.363Z,13.18
2022-09-21T04:20:09.630Z,13.18
2022-09-21T04:22:41.094Z,13.21
2022-09-21T04:25:10.639Z,13.20
2022-09-21T04:27:37.166Z,13.14
2022-09-21T04:30:04.700Z,13.12
2022-09-21T04:32:31.313Z,13.13
2022-09-21T04:34:58.141Z,12.92
2022-09-21T04:37:24.752Z,12.77
2022-09-21T04:39:51.771Z,12.74
2022-09-21T04:42:19.041Z,12.78
2022-09-21T04:44:45.555Z,12.79
2022-09-21T04:47:12.088Z,12.85
2022-09-21T04:49:38.806Z,12.85
2022-09-21T04:52:05.977Z,12.89
2022-09-21T04:54:32.677Z,12.95
2022-09-21T04:56:59.398Z,12.94
2022-09-21T04:59:26.125Z,12.96
2022-09-21T05:01:52.841Z,12.94
2022-09-21T05:04:19.552Z,12.99
2022-09-21T05:06:46.058Z,13.01
2022-09-21T05:09:35.204Z,13.10
2022-09-21T05:12:02.979Z,13.06
2022-09-21T05:14:29.547Z,13.01
2022-09-21T05:16:56.406Z,12.98
2022-09-21T05:19:23.580Z,12.88
2022-09-21T05:21:50.166Z,13.05
2022-09-21T05:24:16.795Z,13.17
2022-09-21T05:26:43.460Z,13.16
2022-09-21T05:29:10.283Z,13.14
2022-09-21T05:31:45.952Z,13.21
2022-09-21T05:34:26.668Z,13.19
2022-09-21T05:37:10.164Z,13.24
2022-09-21T05:39:37.099Z,13.23
2022-09-21T05:42:04.018Z,13.33
2022-09-21T05:44:30.926Z,13.27
2022-09-21T05:46:59.868Z,13.25
2022-09-21T05:50:01.588Z,13.38
2022-09-21T05:52:43.315Z,13.39
2022-09-21T05:55:12.628Z,13.45
2022-09-21T05:58:10.155Z,13.45
2022-09-21T06:00:47.958Z,13.45
2022-09-21T06:03:29.965Z,13.50
2022-09-21T06:05:57.669Z,13.60
2022-09-21T06:08:25.111Z,13.64
2022-09-21T06:10:52.239Z,13.76
2022-09-21T06:13:19.351Z,13.74
2022-09-21T06:15:46.963Z,13.74
2022-09-21T06:18:17.730Z,13.71
2022-09-21T06:20:45.335Z,13.73
2022-09-21T06:23:13.134Z,13.77
2022-09-21T06:25:40.071Z,13.78
2022-09-21T06:28:10.142Z,13.80
2022-09-21T06:30:37.209Z,13.80
2022-09-21T06:33:05.949Z,13.83
2022-09-21T06:35:34.503Z,13.83
2022-09-21T06:38:02.790Z,13.86
2022-09-21T06:40:30.467Z,13.87
2022-09-21T06:43:01.863Z,13.81
2022-09-21T06:45:30.138Z,13.86
2022-09-21T06:47:56.962Z,13.85
2022-09-21T06:50:23.871Z,13.83
2022-09-21T06:52:50.388Z,13.72
2022-09-21T06:55:17.249Z,13.72
2022-09-21T06:57:43.892Z,13.63
2022-09-21T07:00:12.561Z,13.70
2022-09-21T07:02:42.999Z,13.68
2022-09-21T07:05:09.651Z,13.39
2022-09-21T07:07:36.444Z,13.40
2022-09-21T07:10:05.520Z,13.42
2022-09-21T07:12:34.645Z,13.45
2022-09-21T07:15:02.467Z,13.47
2022-09-21T07:17:33.695Z,13.51
2022-09-21T07:20:02.124Z,13.55
2022-09-21T07:22:30.045Z,13.64
2022-09-21T07:24:57.418Z,13.72
2022-09-21T07:27:28.874Z,13.74
2022-09-21T07:29:55.532Z,13.73
2022-09-21T07:32:22.196Z,13.73
2022-09-21T07:34:49.162Z,13.81
2022-09-21T07:37:16.182Z,13.83
2022-09-21T07:39:42.821Z,13.79
2022-09-21T07:42:09.348Z,13.81
2022-09-21T07:44:35.978Z,13.84
2022-09-21T07:47:03.344Z,13.83
2022-09-21T07:49:30.109Z,13.85
2022-09-21T07:52:01.368Z,13.87
2022-09-21T07:54:30.486Z,13.84
2022-09-21T07:57:15.427Z,13.89
2022-09-21T07:59:42.043Z,13.94
2022-09-21T08:02:08.657Z,13.88
2022-09-21T08:04:35.342Z,14.05
2022-09-21T08:07:01.896Z,14.05
2022-09-21T08:09:28.456Z,14.07
2022-09-21T08:11:55.998Z,14.08
2022-09-21T08:14:26.347Z,14.03
2022-09-21T08:16:53.655Z,14.09
2022-09-21T08:19:20.910Z,14.12
2022-09-21T08:21:56.221Z,14.05
2022-09-21T08:24:26.530Z,14.16
2022-09-21T08:26:53.930Z,14.28
2022-09-21T08:29:20.652Z,14.20
2022-09-21T08:31:47.392Z,14.19
2022-09-21T08:34:14.356Z,14.19
2022-09-21T08:36:40.999Z,14.22
2022-09-21T08:39:09.071Z,14.29
2022-09-21T08:41:46.348Z,14.24
2022-09-21T08:44:23.111Z,14.24
2022-09-21T08:47:00.746Z,14.26
2022-09-21T08:49:28.861Z,14.29
2022-09-21T08:52:05.992Z,14.37
2022-09-21T08:54:48.112Z,14.33
2022-09-21T08:57:15.940Z,14.32
2022-09-21T08:59:46.660Z,14.41
2022-09-21T09:02:21.837Z,14.25
2022-09-21T09:04:57.331Z,14.18
2022-09-21T09:07:48.994Z,14.23
2022-09-21T09:10:30.650Z,14.24
2022-09-21T09:13:01.867Z,14.26
2022-09-21T09:15:48.370Z,14.36
2022-09-21T09:18:29.085Z,14.42
2022-09-21T09:21:07.309Z,14.45
2022-09-21T09:23:48.338Z,14.51
2022-09-21T09:26:42.734Z,14.59
2022-09-21T09:29:39.802Z,14.60
2022-09-21T09:32:13.061Z,14.60
2022-09-21T09:34:49.303Z,14.58
2022-09-21T09:37:17.338Z,14.62
2022-09-21T09:39:49.298Z,14.61
2022-09-21T09:42:24.934Z,14.62
2022-09-21T09:45:15.062Z,14.49
2022-09-21T09:48:04.899Z,14.48
2022-09-21T09:50:41.336Z,14.50
2022-09-21T09:53:18.689Z,14.53
2022-09-21T09:55:49.475Z,14.55
2022-09-21T09:58:21.993Z,14.53
2022-09-21T10:00:53.285Z,14.55
2022-09-21T10:03:23.389Z,14.57
2022-09-21T10:05:50.448Z,14.65
2022-09-21T10:08:39.266Z,14.60
2022-09-21T10:11:06.092Z,14.62
2022-09-21T10:13:38.054Z,14.62
2022-09-21T10:16:14.104Z,14.56
2022-09-21T10:18:51.888Z,14.63
2022-09-21T10:21:18.478Z,14.66
2022-09-21T10:24:01.925Z,14.73
2022-09-21T10:26:50.534Z,14.77
2022-09-21T10:29:23.196Z,14.76
2022-09-21T10:32:14.829Z,14.73
2022-09-21T10:35:13.217Z,14.68
2022-09-21T10:37:42.065Z,14.71
2022-09-21T10:40:17.677Z,14.67
2022-09-21T10:42:44.668Z,14.61
2022-09-21T10:45:23.459Z,14.66
2022-09-21T10:48:09.887Z,14.68
2022-09-21T10:50:39.412Z,14.75
2022-09-21T10:53:08.711Z,14.78
2022-09-21T10:56:14.933Z,14.72
2022-09-21T10:59:20.625Z,14.77
2022-09-21T11:01:50.264Z,14.75
2022-09-21T11:04:25.053Z,14.78
2022-09-21T11:07:02.445Z,14.78
2022-09-21T11:09:40.628Z,14.89
2022-09-21T11:12:13.090Z,14.90
2022-09-21T11:14:51.377Z,14.88
2022-09-21T11:17:37.347Z,14.89
2022-09-21T11:20:19.071Z,14.87
2022-09-21T11:23:00.222Z,14.88
2022-09-21T11:25:36.605Z,14.88
2022-09-21T11:28:15.130Z,14.84
2022-09-21T11:31:14.592Z,14.72
2022-09-21T11:33:44.044Z,14.76
2022-09-21T11:36:34.642Z,14.73
2022-09-21T11:39:13.288Z,14.72
2022-09-21T11:41:51.694Z,14.78
2022-09-21T11:44:49.300Z,14.80
2022-09-21T11:47:36.085Z,14.87
2022-09-21T11:50:30.590Z,14.71
2022-09-21T11:53:28.837Z,14.74
2022-09-21T11:55:58.157Z,14.74
2022-09-21T11:58:57.699Z,14.70
2022-09-21T12:01:36.297Z,14.67
2022-09-21T12:04:32.898Z,14.73
2022-09-21T12:06:59.451Z,14.73
2022-09-21T12:10:10.400Z,14.77
2022-09-21T12:12:50.100Z,14.82
2022-09-21T12:15:25.684Z,14.76
2022-09-21T12:17:55.274Z,14.76
2022-09-21T12:20:35.122Z,14.75
2022-09-21T12:23:12.843Z,14.76
2022-09-21T12:25:44.085Z,14.75
2022-09-21T12:28:29.025Z,14.72
2022-09-21T12:31:04.195Z,14.78
2022-09-21T12:33:47.474Z,14.82
2022-09-21T12:36:20.338Z,14.87
2022-09-21T12:39:01.803Z,14.87
2022-09-21T12:41:37.401Z,14.92
2022-09-21T12:44:15.312Z,14.92
2022-09-21T12:46:51.816Z,14.91
2022-09-21T12:49:31.565Z,14.93
2022-09-21T12:52:06.252Z,14.97
2022-09-21T12:54:54.424Z,15.02
2022-09-21T12:58:04.478Z,15.08
2022-09-21T13:00:41.227Z,15.13
2022-09-21T13:03:28.694Z,15.17
2022-09-21T13:06:06.550Z,15.15
2022-09-21T13:08:39.155Z,14.99
2022-09-21T13:11:08.018Z,14.92
2022-09-21T13:13:52.746Z,14.97
2022-09-21T13:16:27.590Z,14.97
2022-09-21T13:18:58.305Z,14.95
2022-09-21T13:21:27.921Z,14.90
2022-09-21T13:24:00.742Z,14.88
2022-09-21T13:26:39.251Z,14.89
2022-09-21T13:29:27.428Z,14.97
2022-09-21T13:31:57.659Z,15.02
2022-09-21T13:34:41.320Z,15.00
2022-09-21T13:37:19.831Z,15.01
2022-09-21T13:40:01.443Z,15.01
2022-09-21T13:42:30.989Z,14.97
2022-09-21T13:44:59.277Z,14.96
2022-09-21T13:47:34.712Z,14.93
2022-09-21T13:50:10.821Z,14.96
2022-09-21T13:52:44.525Z,15.04
2022-09-21T13:55:29.439Z,15.09
2022-09-21T13:58:02.215Z,15.17
2022-09-21T14:00:52.000Z,15.23
2022-09-21T14:03:32.124Z,15.23
2022-09-21T14:06:03.398Z,15.28
2022-09-21T14:08:37.674Z,15.18
2022-09-21T14:11:08.972Z,15.12
2022-09-21T14:13:45.620Z,15.19
2022-09-21T14:16:39.964Z,15.23
2022-09-21T14:19:18.686Z,15.29
2022-09-21T14:22:03.326Z,15.30
2022-09-21T14:24:43.588Z,15.29
2022-09-21T14:27:18.143Z,15.35
2022-09-21T14:29:55.381Z,15.36
2022-09-21T14:32:28.163Z,15.35
2022-09-21T14:35:01.496Z,15.36
2022-09-21T14:37:34.299Z,15.41
2022-09-21T14:40:16.193Z,15.35
2022-09-21T14:42:44.369Z,15.43
2022-09-21T14:45:20.217Z,15.46
2022-09-21T14:47:57.284Z,15.39
2022-09-21T14:50:31.726Z,15.52
2022-09-21T14:53:17.195Z,15.53
2022-09-21T14:55:53.676Z,15.46
2022-09-21T14:58:42.854Z,15.47
2022-09-21T15:01:34.133Z,15.42
2022-09-21T15:04:19.173Z,15.46
2022-09-21T15:07:31.133Z,15.57
2022-09-21T15:10:34.834Z,15.56
2022-09-21T15:13:05.079Z,15.55
2022-09-21T15:15:46.396Z,15.49
2022-09-21T15:18:20.453Z,15.48
2022-09-21T15:21:03.631Z,15.46
2022-09-21T15:23:39.227Z,15.46
2022-09-21T15:26:14.557Z,15.59
2022-09-21T15:29:08.245Z,15.73
2022-09-21T15:31:37.663Z,15.84
2022-09-21T15:34:09.351Z,15.84
2022-09-21T15:36:43.458Z,15.89
2022-09-21T15:39:30.750Z,15.94
2022-09-21T15:42:19.958Z,16.06
2022-09-21T15:44:48.746Z,16.18
2022-09-21T15:47:19.241Z,16.23
2022-09-21T15:49:46.114Z,16.24
2022-09-21T15:52:37.919Z,16.15
2022-09-21T15:55:21.286Z,16.24
2022-09-21T15:57:51.117Z,16.28
2022-09-21T16:00:21.380Z,16.28
2022-09-21T16:03:26.487Z,16.22
2022-09-21T16:05:55.387Z,16.14
2022-09-21T16:08:30.717Z,16.10
2022-09-21T16:11:29.720Z,16.12
2022-09-21T16:14:29.919Z,16.14
2022-09-21T16:17:12.135Z,16.10
2022-09-21T16:20:10.489Z,16.03
2022-09-21T16:22:42.701Z,15.95
2022-09-21T16:25:32.513Z,15.83
2022-09-21T16:28:05.667Z,15.82
2022-09-21T16:30:48.789Z,15.76
2022-09-21T16:33:49.084Z,15.68
2022-09-21T16:36:41.841Z,15.64
2022-09-21T16:39:14.941Z,15.63
2022-09-21T16:42:03.028Z,15.62
2022-09-21T16:44:34.369Z,15.63
2022-09-21T16:47:03.061Z,15.64
2022-09-21T16:49:34.656Z,15.59
2022-09-21T16:52:01.908Z,15.65
2022-09-21T16:54:30.421Z,15.63
2022-09-21T16:57:00.027Z,15.62
2022-09-21T16:59:27.052Z,15.61
2022-09-21T17:01:58.319Z,15.58
2022-09-21T17:04:28.870Z,15.58
2022-09-21T17:06:56.255Z,15.57
2022-09-21T17:09:29.556Z,15.55
2022-09-21T17:12:00.152Z,15.37
2022-09-21T17:14:32.993Z,15.24
2022-09-21T17:17:00.659Z,15.15
2022-09-21T17:19:27.200Z,15.14
2022-09-21T17:21:53.801Z,15.04
2022-09-21T17:24:45.967Z,15.06
2022-09-21T17:27:07.984Z,15.04
2022-09-21T17:29:37.121Z,15.01
2022-09-21T17:32:06.152Z,14.91
2022-09-21T17:34:34.132Z,14.90
2022-09-21T17:37:00.716Z,14.91
2022-09-21T17:39:27.475Z,14.84
2022-09-21T17:42:02.422Z,14.82
2022-09-21T17:44:48.056Z,14.79
2022-09-21T17:47:19.622Z,14.77
2022-09-21T17:49:47.520Z,14.69
2022-09-21T17:52:38.114Z,14.61
2022-09-21T17:55:09.023Z,14.45
2022-09-21T17:57:40.415Z,14.36
2022-09-21T18:00:13.898Z,14.28
2022-09-21T18:02:40.716Z,14.31
2022-09-21T18:05:30.254Z,14.23
2022-09-21T18:07:57.162Z,14.18
2022-09-21T18:10:26.173Z,14.18
2022-09-21T18:13:00.218Z,14.20
2022-09-21T18:15:39.564Z,14.12
2022-09-21T18:18:47.198Z,14.15
2022-09-21T18:21:18.251Z,14.17
2022-09-21T18:24:07.723Z,14.15
2022-09-21T18:26:35.210Z,14.14
2022-09-21T18:29:22.429Z,14.21
2022-09-21T18:32:24.905Z,14.11
2022-09-21T18:35:21.586Z,14.15
2022-09-21T18:38:03.385Z,14.25
2022-09-21T18:40:48.410Z,14.26
2022-09-21T18:43:46.099Z,14.29
2022-09-21T18:46:19.572Z,14.42
2022-09-21T18:48:50.753Z,14.42
2022-09-21T18:51:33.724Z,14.38
2022-09-21T18:54:00.633Z,14.41
2022-09-21T18:56:33.983Z,14.36
2022-09-21T18:59:01.110Z,14.40
2022-09-21T19:01:29.919Z,14.37
2022-09-21T19:03:56.884Z,14.37
2022-09-21T19:06:45.474Z,14.32
2022-09-21T19:09:44.436Z,14.38
2022-09-21T19:12:23.141Z,14.41
2022-09-21T19:15:13.447Z,14.43
2022-09-21T19:18:20.089Z,14.43
2022-09-21T19:20:56.160Z,14.46
2022-09-21T19:24:04.405Z,14.44
2022-09-21T19:26:38.658Z,14.43
2022-09-21T19:29:14.186Z,14.48
2022-09-21T19:31:40.775Z,14.52
2022-09-21T19:34:14.737Z,14.39
2022-09-21T19:36:42.553Z,14.33
2022-09-21T19:39:12.509Z,14.31
2022-09-21T19:41:54.643Z,14.31
2022-09-21T19:44:47.606Z,14.32
2022-09-21T19:47:30.055Z,14.36
2022-09-21T19:50:17.750Z,14.38
2022-09-21T19:52:45.559Z,14.34
2022-09-21T19:55:37.488Z,14.35
2022-09-21T19:58:23.448Z,14.34
2022-09-21T20:00:52.763Z,14.37
2022-09-21T20:03:42.489Z,14.31
2022-09-21T20:06:39.959Z,14.32
2022-09-21T20:09:25.534Z,14.26
2022-09-21T20:12:07.220Z,14.30
2022-09-21T20:14:50.072Z,14.36
2022-09-21T20:17:33.901Z,14.30
2022-09-21T20:20:08.589Z,14.35
2022-09-21T20:22:40.425Z,14.29
2022-09-21T20:25:13.311Z,14.34
2022-09-21T20:27:42.054Z,14.40
2022-09-21T20:30:12.052Z,14.32
2022-09-21T20:32:41.046Z,14.39
2022-09-21T20:35:17.083Z,14.29
2022-09-21T20:37:44.476Z,14.22
2022-09-21T20:40:13.266Z,14.27
2022-09-21T20:42:41.392Z,14.24
2022-09-21T20:45:09.669Z,14.26
2022-09-21T20:47:36.282Z,14.25
2022-09-21T20:50:03.590Z,14.24
2022-09-21T20:52:30.473Z,14.23
2022-09-21T20:54:56.961Z,14.25
2022-09-21T20:57:23.560Z,14.27
2022-09-21T20:59:50.093Z,14.33
2022-09-21T21:02:16.812Z,14.28
2022-09-21T21:04:43.376Z,14.34
2022-09-21T21:07:10.139Z,14.33
2022-09-21T21:09:36.622Z,14.35
2022-09-21T21:12:03.342Z,14.32
2022-09-21T21:14:29.950Z,14.26
2022-09-21T21:16:56.644Z,14.31
2022-09-21T21:19:23.370Z,14.28
2022-09-21T21:21:50.113Z,14.18
2022-09-21T21:24:35.254Z,14.15
2022-09-21T21:27:03.314Z,14.16
2022-09-21T21:29:31.989Z,14.20
2022-09-21T21:31:59.509Z,14.26
2022-09-21T21:34:26.267Z,14.32
2022-09-21T21:36:53.141Z,14.23
2022-09-21T21:39:19.620Z,14.08
2022-09-21T21:41:46.647Z,14.20
2022-09-21T21:44:13.282Z,14.26
2022-09-21T21:46:39.872Z,14.30
2022-09-21T21:49:07.072Z,14.35
2022-09-21T21:51:33.754Z,14.34
2022-09-21T21:54:00.236Z,14.34
2022-09-21T21:56:26.883Z,14.37
2022-09-21T21:58:54.298Z,14.29
2022-09-21T22:01:24.535Z,14.28
2022-09-21T22:03:57.007Z,14.31
2022-09-21T22:06:24.579Z,14.31
2022-09-21T22:08:51.504Z,14.35
2022-09-21T22:11:18.744Z,14.29
2022-09-21T22:13:45.899Z,14.29
2022-09-21T22:16:15.412Z,14.29
2022-09-21T22:18:42.660Z,14.24
2022-09-21T22:21:21.049Z,14.25
2022-09-21T22:23:52.731Z,14.26
2022-09-21T22:26:19.805Z,14.25
2022-09-21T22:28:48.876Z,14.31
2022-09-21T22:31:18.250Z,14.35
2022-09-21T22:33:45.674Z,14.30
2022-09-21T22:36:15.385Z,14.28
2022-09-21T22:38:43.154Z,14.30
2022-09-21T22:41:12.440Z,14.25
2022-09-21T22:43:39.764Z,14.28
2022-09-21T22:46:07.437Z,14.27
2022-09-21T22:48:35.148Z,14.29
2022-09-21T22:51:02.508Z,14.31
2022-09-21T22:53:29.826Z,14.31
2022-09-21T22:56:01.395Z,14.29
2022-09-21T22:58:28.017Z,14.31
2022-09-21T23:01:06.004Z,14.29
2022-09-21T23:03:33.571Z,14.26
2022-09-21T23:06:00.847Z,14.31
2022-09-21T23:08:28.483Z,14.23
2022-09-21T23:10:55.364Z,14.25
2022-09-21T23:13:21.942Z,14.22
2022-09-21T23:15:48.465Z,14.21
2022-09-21T23:18:15.111Z,14.22
2022-09-21T23:20:41.804Z,14.21
2022-09-21T23:23:08.423Z,14.20
2022-09-21T23:25:35.007Z,14.06
2022-09-21T23:28:01.887Z,14.06
2022-09-21T23:30:28.409Z,13.98
2022-09-21T23:32:54.985Z,14.03
2022-09-21T23:35:21.637Z,14.05
2022-09-21T23:37:48.166Z,14.07
2022-09-21T23:40:14.781Z,14.13
2022-09-21T23:42:41.351Z,14.16
2022-09-21T23:45:08.443Z,14.21
2022-09-21T23:47:35.260Z,14.23
2022-09-21T23:50:01.880Z,14.29
2022-09-21T23:52:28.578Z,14.19
2022-09-21T23:54:55.032Z,14.25
2022-09-21T23:57:21.568Z,14.26
2022-09-21T23:59:48.253Z,14.21
